sensor_id;sensor_type;location;lat;lon;timestamp;temperature;humidity
42037;DHT22;30340;52.004;5.908;2023-12-14T00:01:21;7.60;99.90
42037;DHT22;30340;52.004;5.908;2023-12-14T00:03:47;7.60;99.90
42037;DHT22;30340;52.004;5.908;2023-12-14T00:06:14;7.60;99.90
42037;DHT22;30340;52.004;5.908;2023-12-14T00:08:40;7.60;99.90
42037;DHT22;30340;52.004;5.908;2023-12-14T00:11:07;7.60;99.90
42037;DHT22;30340;52.004;5.908;2023-12-14T00:13:33;7.60;99.90
42037;DHT22;30340;52.004;5.908;2023-12-14T00:15:59;7.60;99.90
42037;DHT22;30340;52.004;5.908;2023-12-14T00:18:25;7.60;99.90
42037;DHT22;30340;52.004;5.908;2023-12-14T00:20:50;7.50;99.90
42037;DHT22;30340;52.004;5.908;2023-12-14T00:23:16;7.50;99.90
42037;DHT22;30340;52.004;5.908;2023-12-14T00:25:42;7.50;99.90
42037;DHT22;30340;52.004;5.908;2023-12-14T00:28:07;7.50;99.90
42037;DHT22;30340;52.004;5.908;2023-12-14T00:30:33;7.50;99.90
42037;DHT22;30340;52.004;5.908;2023-12-14T00:32:58;7.40;99.90
42037;DHT22;30340;52.004;5.908;2023-12-14T00:35:24;7.40;99.90
42037;DHT22;30340;52.004;5.908;2023-12-14T00:37:49;7.30;99.90
42037;DHT22;30340;52.004;5.908;2023-12-14T00:40:15;7.30;99.90
42037;DHT22;30340;52.004;5.908;2023-12-14T00:42:40;7.30;99.90
42037;DHT22;30340;52.004;5.908;2023-12-14T00:45:06;7.30;99.90
42037;DHT22;30340;52.004;5.908;2023-12-14T00:47:32;7.40;99.90
42037;DHT22;30340;52.004;5.908;2023-12-14T00:49:57;7.40;99.90
42037;DHT22;30340;52.004;5.908;2023-12-14T00:52:23;7.40;99.90
42037;DHT22;30340;52.004;5.908;2023-12-14T00:54:48;7.40;99.90
42037;DHT22;30340;52.004;5.908;2023-12-14T00:57:14;7.40;99.90
42037;DHT22;30340;52.004;5.908;2023-12-14T00:59:39;7.40;99.90
42037;DHT22;30340;52.004;5.908;2023-12-14T01:02:06;7.50;99.90
42037;DHT22;30340;52.004;5.908;2023-12-14T01:04:32;7.40;99.90
42037;DHT22;30340;52.004;5.908;2023-12-14T01:06:58;7.40;99.90
42037;DHT22;30340;52.004;5.908;2023-12-14T01:09:24;7.40;99.90
42037;DHT22;30340;52.004;5.908;2023-12-14T01:11:49;7.40;99.90
42037;DHT22;30340;52.004;5.908;2023-12-14T01:14:15;7.40;99.90
42037;DHT22;30340;52.004;5.908;2023-12-14T01:16:40;7.40;99.90
42037;DHT22;30340;52.004;5.908;2023-12-14T01:19:06;7.30;99.90
42037;DHT22;30340;52.004;5.908;2023-12-14T01:21:32;7.30;99.90
42037;DHT22;30340;52.004;5.908;2023-12-14T01:23:58;7.30;99.90
42037;DHT22;30340;52.004;5.908;2023-12-14T01:26:23;7.20;99.90
42037;DHT22;30340;52.004;5.908;2023-12-14T01:28:49;7.20;99.90
42037;DHT22;30340;52.004;5.908;2023-12-14T01:31:14;7.20;99.90
42037;DHT22;30340;52.004;5.908;2023-12-14T01:33:40;7.30;99.90
42037;DHT22;30340;52.004;5.908;2023-12-14T01:36:06;7.30;99.90
42037;DHT22;30340;52.004;5.908;2023-12-14T01:38:31;7.40;99.90
42037;DHT22;30340;52.004;5.908;2023-12-14T01:40:57;7.40;99.90
42037;DHT22;30340;52.004;5.908;2023-12-14T01:43:23;7.40;99.90
42037;DHT22;30340;52.004;5.908;2023-12-14T01:45:49;7.40;99.80
42037;DHT22;30340;52.004;5.908;2023-12-14T01:48:14;7.40;99.70
42037;DHT22;30340;52.004;5.908;2023-12-14T01:50:40;7.40;99.70
42037;DHT22;30340;52.004;5.908;2023-12-14T01:53:05;7.30;99.70
42037;DHT22;30340;52.004;5.908;2023-12-14T01:55:31;7.30;99.70
42037;DHT22;30340;52.004;5.908;2023-12-14T01:57:56;7.30;99.70
42037;DHT22;30340;52.004;5.908;2023-12-14T02:00:51;7.30;99.70
42037;DHT22;30340;52.004;5.908;2023-12-14T02:03:15;7.30;99.60
42037;DHT22;30340;52.004;5.908;2023-12-14T02:05:40;7.30;99.70
42037;DHT22;30340;52.004;5.908;2023-12-14T02:08:06;7.30;99.70
42037;DHT22;30340;52.004;5.908;2023-12-14T02:10:32;7.30;99.70
42037;DHT22;30340;52.004;5.908;2023-12-14T02:12:58;7.30;99.60
42037;DHT22;30340;52.004;5.908;2023-12-14T02:15:23;7.30;99.50
42037;DHT22;30340;52.004;5.908;2023-12-14T02:17:49;7.30;99.40
42037;DHT22;30340;52.004;5.908;2023-12-14T02:20:14;7.30;99.60
42037;DHT22;30340;52.004;5.908;2023-12-14T02:22:50;7.30;99.50
42037;DHT22;30340;52.004;5.908;2023-12-14T02:25:16;7.30;99.60
42037;DHT22;30340;52.004;5.908;2023-12-14T02:27:42;7.40;99.50
42037;DHT22;30340;52.004;5.908;2023-12-14T02:30:08;7.40;99.40
42037;DHT22;30340;52.004;5.908;2023-12-14T02:32:34;7.40;99.40
42037;DHT22;30340;52.004;5.908;2023-12-14T02:34:59;7.30;99.30
42037;DHT22;30340;52.004;5.908;2023-12-14T02:37:25;7.30;99.40
42037;DHT22;30340;52.004;5.908;2023-12-14T02:39:50;7.30;99.40
42037;DHT22;30340;52.004;5.908;2023-12-14T02:42:16;7.20;99.40
42037;DHT22;30340;52.004;5.908;2023-12-14T02:44:42;7.30;99.40
42037;DHT22;30340;52.004;5.908;2023-12-14T02:47:07;7.30;99.40
42037;DHT22;30340;52.004;5.908;2023-12-14T02:49:33;7.30;99.30
42037;DHT22;30340;52.004;5.908;2023-12-14T02:51:59;7.30;99.20
42037;DHT22;30340;52.004;5.908;2023-12-14T02:54:24;7.30;99.30
42037;DHT22;30340;52.004;5.908;2023-12-14T02:56:50;7.30;99.30
42037;DHT22;30340;52.004;5.908;2023-12-14T02:59:15;7.30;99.40
42037;DHT22;30340;52.004;5.908;2023-12-14T03:01:41;7.40;99.30
42037;DHT22;30340;52.004;5.908;2023-12-14T03:04:07;7.40;99.20
42037;DHT22;30340;52.004;5.908;2023-12-14T03:06:33;7.40;99.20
42037;DHT22;30340;52.004;5.908;2023-12-14T03:08:58;7.30;99.10
42037;DHT22;30340;52.004;5.908;2023-12-14T03:11:24;7.30;99.10
42037;DHT22;30340;52.004;5.908;2023-12-14T03:13:50;7.30;99.10
42037;DHT22;30340;52.004;5.908;2023-12-14T03:16:16;7.30;99.20
42037;DHT22;30340;52.004;5.908;2023-12-14T03:18:44;7.30;99.10
42037;DHT22;30340;52.004;5.908;2023-12-14T03:21:10;7.30;99.10
42037;DHT22;30340;52.004;5.908;2023-12-14T03:23:35;7.30;99.10
42037;DHT22;30340;52.004;5.908;2023-12-14T03:26:01;7.30;99.00
42037;DHT22;30340;52.004;5.908;2023-12-14T03:28:27;7.30;99.00
42037;DHT22;30340;52.004;5.908;2023-12-14T03:30:53;7.20;98.90
42037;DHT22;30340;52.004;5.908;2023-12-14T03:33:19;7.20;98.80
42037;DHT22;30340;52.004;5.908;2023-12-14T03:35:44;7.20;98.80
42037;DHT22;30340;52.004;5.908;2023-12-14T03:38:14;7.20;98.90
42037;DHT22;30340;52.004;5.908;2023-12-14T03:40:40;7.20;98.80
42037;DHT22;30340;52.004;5.908;2023-12-14T03:43:05;7.20;98.90
42037;DHT22;30340;52.004;5.908;2023-12-14T03:45:31;7.20;98.80
42037;DHT22;30340;52.004;5.908;2023-12-14T03:47:56;7.20;98.80
42037;DHT22;30340;52.004;5.908;2023-12-14T03:50:22;7.20;98.80
42037;DHT22;30340;52.004;5.908;2023-12-14T03:52:48;7.20;98.80
42037;DHT22;30340;52.004;5.908;2023-12-14T03:55:14;7.20;98.80
42037;DHT22;30340;52.004;5.908;2023-12-14T03:57:42;7.20;98.80
42037;DHT22;30340;52.004;5.908;2023-12-14T04:00:12;7.20;98.70
42037;DHT22;30340;52.004;5.908;2023-12-14T04:02:38;7.20;98.70
42037;DHT22;30340;52.004;5.908;2023-12-14T04:05:04;7.20;98.60
42037;DHT22;30340;52.004;5.908;2023-12-14T04:07:30;7.20;98.70
42037;DHT22;30340;52.004;5.908;2023-12-14T04:09:55;7.20;98.70
42037;DHT22;30340;52.004;5.908;2023-12-14T04:12:21;7.20;98.70
42037;DHT22;30340;52.004;5.908;2023-12-14T04:14:46;7.20;98.70
42037;DHT22;30340;52.004;5.908;2023-12-14T04:17:12;7.20;98.70
42037;DHT22;30340;52.004;5.908;2023-12-14T04:19:38;7.20;98.60
42037;DHT22;30340;52.004;5.908;2023-12-14T04:22:04;7.30;98.60
42037;DHT22;30340;52.004;5.908;2023-12-14T04:24:30;7.30;98.60
42037;DHT22;30340;52.004;5.908;2023-12-14T04:26:56;7.30;98.50
42037;DHT22;30340;52.004;5.908;2023-12-14T04:29:21;7.30;98.50
42037;DHT22;30340;52.004;5.908;2023-12-14T04:31:47;7.30;98.40
42037;DHT22;30340;52.004;5.908;2023-12-14T04:34:13;7.30;98.50
42037;DHT22;30340;52.004;5.908;2023-12-14T04:36:42;7.30;98.60
42037;DHT22;30340;52.004;5.908;2023-12-14T04:39:07;7.30;98.60
42037;DHT22;30340;52.004;5.908;2023-12-14T04:41:33;7.30;98.60
42037;DHT22;30340;52.004;5.908;2023-12-14T04:43:58;7.40;98.50
42037;DHT22;30340;52.004;5.908;2023-12-14T04:46:24;7.30;98.40
42037;DHT22;30340;52.004;5.908;2023-12-14T04:48:49;7.30;98.40
42037;DHT22;30340;52.004;5.908;2023-12-14T04:51:15;7.30;98.40
42037;DHT22;30340;52.004;5.908;2023-12-14T04:53:40;7.30;98.40
42037;DHT22;30340;52.004;5.908;2023-12-14T04:56:10;7.30;98.40
42037;DHT22;30340;52.004;5.908;2023-12-14T04:58:38;7.40;98.40
42037;DHT22;30340;52.004;5.908;2023-12-14T05:01:03;7.40;98.30
42037;DHT22;30340;52.004;5.908;2023-12-14T05:03:29;7.30;98.30
42037;DHT22;30340;52.004;5.908;2023-12-14T05:05:54;7.20;98.30
42037;DHT22;30340;52.004;5.908;2023-12-14T05:08:20;7.30;98.40
42037;DHT22;30340;52.004;5.908;2023-12-14T05:10:45;7.30;98.60
42037;DHT22;30340;52.004;5.908;2023-12-14T05:13:11;7.20;98.30
42037;DHT22;30340;52.004;5.908;2023-12-14T05:15:36;7.20;98.30
42037;DHT22;30340;52.004;5.908;2023-12-14T05:18:02;7.20;98.50
42037;DHT22;30340;52.004;5.908;2023-12-14T05:20:28;7.20;98.30
42037;DHT22;30340;52.004;5.908;2023-12-14T05:22:53;7.30;98.50
42037;DHT22;30340;52.004;5.908;2023-12-14T05:25:19;7.20;98.30
42037;DHT22;30340;52.004;5.908;2023-12-14T05:27:45;7.20;98.30
42037;DHT22;30340;52.004;5.908;2023-12-14T05:30:12;7.20;98.30
42037;DHT22;30340;52.004;5.908;2023-12-14T05:32:38;7.30;98.40
42037;DHT22;30340;52.004;5.908;2023-12-14T05:35:04;7.20;98.30
42037;DHT22;30340;52.004;5.908;2023-12-14T05:37:30;7.20;98.40
42037;DHT22;30340;52.004;5.908;2023-12-14T05:39:55;7.20;98.30
42037;DHT22;30340;52.004;5.908;2023-12-14T05:42:21;7.20;98.30
42037;DHT22;30340;52.004;5.908;2023-12-14T05:44:47;7.20;98.30
42037;DHT22;30340;52.004;5.908;2023-12-14T05:47:12;7.20;98.40
42037;DHT22;30340;52.004;5.908;2023-12-14T05:49:44;7.20;98.40
42037;DHT22;30340;52.004;5.908;2023-12-14T05:52:10;7.20;98.40
42037;DHT22;30340;52.004;5.908;2023-12-14T05:54:36;7.10;98.30
42037;DHT22;30340;52.004;5.908;2023-12-14T05:57:03;7.10;98.40
42037;DHT22;30340;52.004;5.908;2023-12-14T05:59:28;7.10;98.50
42037;DHT22;30340;52.004;5.908;2023-12-14T06:01:58;7.10;98.50
42037;DHT22;30340;52.004;5.908;2023-12-14T06:04:25;7.10;98.50
42037;DHT22;30340;52.004;5.908;2023-12-14T06:06:51;7.10;98.40
42037;DHT22;30340;52.004;5.908;2023-12-14T06:09:16;7.10;98.40
42037;DHT22;30340;52.004;5.908;2023-12-14T06:11:44;7.10;98.30
42037;DHT22;30340;52.004;5.908;2023-12-14T06:14:10;7.10;98.40
42037;DHT22;30340;52.004;5.908;2023-12-14T06:16:35;7.20;98.30
42037;DHT22;30340;52.004;5.908;2023-12-14T06:19:01;7.20;98.20
42037;DHT22;30340;52.004;5.908;2023-12-14T06:21:27;7.20;98.10
42037;DHT22;30340;52.004;5.908;2023-12-14T06:23:55;7.20;98.10
42037;DHT22;30340;52.004;5.908;2023-12-14T06:26:20;7.10;98.10
42037;DHT22;30340;52.004;5.908;2023-12-14T06:28:46;7.10;98.10
42037;DHT22;30340;52.004;5.908;2023-12-14T06:31:15;7.10;98.00
42037;DHT22;30340;52.004;5.908;2023-12-14T06:33:41;7.10;98.00
42037;DHT22;30340;52.004;5.908;2023-12-14T06:36:08;7.00;97.90
42037;DHT22;30340;52.004;5.908;2023-12-14T06:38:34;7.00;97.90
42037;DHT22;30340;52.004;5.908;2023-12-14T06:41:01;7.00;98.00
42037;DHT22;30340;52.004;5.908;2023-12-14T06:43:27;7.00;98.00
42037;DHT22;30340;52.004;5.908;2023-12-14T06:45:53;6.90;97.90
42037;DHT22;30340;52.004;5.908;2023-12-14T06:48:19;6.90;97.80
42037;DHT22;30340;52.004;5.908;2023-12-14T06:50:45;7.00;97.90
42037;DHT22;30340;52.004;5.908;2023-12-14T06:53:10;6.90;97.80
42037;DHT22;30340;52.004;5.908;2023-12-14T06:55:36;6.90;97.80
42037;DHT22;30340;52.004;5.908;2023-12-14T06:58:02;6.90;97.80
42037;DHT22;30340;52.004;5.908;2023-12-14T07:00:27;6.90;97.80
42037;DHT22;30340;52.004;5.908;2023-12-14T07:02:55;6.90;97.80
42037;DHT22;30340;52.004;5.908;2023-12-14T07:05:20;7.00;97.80
42037;DHT22;30340;52.004;5.908;2023-12-14T07:07:46;7.00;97.60
42037;DHT22;30340;52.004;5.908;2023-12-14T07:10:11;7.00;97.60
42037;DHT22;30340;52.004;5.908;2023-12-14T07:12:37;7.00;97.70
42037;DHT22;30340;52.004;5.908;2023-12-14T07:15:03;7.00;97.60
42037;DHT22;30340;52.004;5.908;2023-12-14T07:17:28;7.00;97.50
42037;DHT22;30340;52.004;5.908;2023-12-14T07:19:54;7.00;97.50
42037;DHT22;30340;52.004;5.908;2023-12-14T07:22:19;7.00;97.50
42037;DHT22;30340;52.004;5.908;2023-12-14T07:24:45;7.10;97.50
42037;DHT22;30340;52.004;5.908;2023-12-14T07:27:10;7.00;97.40
42037;DHT22;30340;52.004;5.908;2023-12-14T07:29:36;7.00;97.30
42037;DHT22;30340;52.004;5.908;2023-12-14T07:32:02;7.00;97.40
42037;DHT22;30340;52.004;5.908;2023-12-14T07:34:27;6.90;97.30
42037;DHT22;30340;52.004;5.908;2023-12-14T07:36:54;6.90;97.30
42037;DHT22;30340;52.004;5.908;2023-12-14T07:39:19;6.90;97.40
42037;DHT22;30340;52.004;5.908;2023-12-14T07:41:45;6.90;97.40
42037;DHT22;30340;52.004;5.908;2023-12-14T07:44:10;6.90;97.40
42037;DHT22;30340;52.004;5.908;2023-12-14T07:46:36;6.90;97.40
42037;DHT22;30340;52.004;5.908;2023-12-14T07:49:05;6.90;97.40
42037;DHT22;30340;52.004;5.908;2023-12-14T07:51:30;6.90;97.40
42037;DHT22;30340;52.004;5.908;2023-12-14T07:53:56;6.80;97.30
42037;DHT22;30340;52.004;5.908;2023-12-14T07:56:21;6.90;97.30
42037;DHT22;30340;52.004;5.908;2023-12-14T07:58:50;6.80;97.30
42037;DHT22;30340;52.004;5.908;2023-12-14T08:01:16;6.80;97.30
42037;DHT22;30340;52.004;5.908;2023-12-14T08:03:41;6.80;97.30
42037;DHT22;30340;52.004;5.908;2023-12-14T08:06:07;6.80;97.20
42037;DHT22;30340;52.004;5.908;2023-12-14T08:08:33;6.80;97.20
42037;DHT22;30340;52.004;5.908;2023-12-14T08:10:58;6.90;97.30
42037;DHT22;30340;52.004;5.908;2023-12-14T08:13:24;6.90;97.30
42037;DHT22;30340;52.004;5.908;2023-12-14T08:15:49;6.90;97.20
42037;DHT22;30340;52.004;5.908;2023-12-14T08:18:15;6.90;97.00
42037;DHT22;30340;52.004;5.908;2023-12-14T08:20:40;6.80;96.80
42037;DHT22;30340;52.004;5.908;2023-12-14T08:23:06;6.80;96.90
42037;DHT22;30340;52.004;5.908;2023-12-14T08:25:32;6.90;97.00
42037;DHT22;30340;52.004;5.908;2023-12-14T08:27:57;6.90;96.90
42037;DHT22;30340;52.004;5.908;2023-12-14T08:30:23;6.90;96.80
42037;DHT22;30340;52.004;5.908;2023-12-14T08:32:49;6.90;96.80
42037;DHT22;30340;52.004;5.908;2023-12-14T08:35:14;7.00;96.80
42037;DHT22;30340;52.004;5.908;2023-12-14T08:37:40;7.00;96.70
42037;DHT22;30340;52.004;5.908;2023-12-14T08:40:06;7.00;96.70
42037;DHT22;30340;52.004;5.908;2023-12-14T08:42:32;7.00;96.70
42037;DHT22;30340;52.004;5.908;2023-12-14T08:44:58;7.00;96.60
42037;DHT22;30340;52.004;5.908;2023-12-14T08:47:24;7.00;96.50
42037;DHT22;30340;52.004;5.908;2023-12-14T08:49:50;7.00;96.60
42037;DHT22;30340;52.004;5.908;2023-12-14T08:52:16;7.00;96.60
42037;DHT22;30340;52.004;5.908;2023-12-14T08:54:42;7.00;96.60
42037;DHT22;30340;52.004;5.908;2023-12-14T08:57:11;7.00;96.50
42037;DHT22;30340;52.004;5.908;2023-12-14T08:59:37;7.10;96.50
42037;DHT22;30340;52.004;5.908;2023-12-14T09:02:03;7.00;96.70
42037;DHT22;30340;52.004;5.908;2023-12-14T09:04:28;7.00;96.40
42037;DHT22;30340;52.004;5.908;2023-12-14T09:06:54;7.00;96.50
42037;DHT22;30340;52.004;5.908;2023-12-14T09:09:19;7.00;96.50
42037;DHT22;30340;52.004;5.908;2023-12-14T09:11:45;7.00;96.50
42037;DHT22;30340;52.004;5.908;2023-12-14T09:14:11;7.00;96.40
42037;DHT22;30340;52.004;5.908;2023-12-14T09:16:36;7.00;96.40
42037;DHT22;30340;52.004;5.908;2023-12-14T09:19:02;7.10;96.30
42037;DHT22;30340;52.004;5.908;2023-12-14T09:21:27;7.00;96.30
42037;DHT22;30340;52.004;5.908;2023-12-14T09:23:53;7.10;96.40
42037;DHT22;30340;52.004;5.908;2023-12-14T09:26:19;7.10;96.30
42037;DHT22;30340;52.004;5.908;2023-12-14T09:28:44;7.00;96.20
42037;DHT22;30340;52.004;5.908;2023-12-14T09:31:10;7.10;96.30
42037;DHT22;30340;52.004;5.908;2023-12-14T09:33:36;7.10;96.30
42037;DHT22;30340;52.004;5.908;2023-12-14T09:36:02;7.10;96.20
42037;DHT22;30340;52.004;5.908;2023-12-14T09:38:27;7.10;96.30
42037;DHT22;30340;52.004;5.908;2023-12-14T09:40:53;7.10;96.30
42037;DHT22;30340;52.004;5.908;2023-12-14T09:43:19;7.10;96.30
42037;DHT22;30340;52.004;5.908;2023-12-14T09:45:47;7.20;96.30
42037;DHT22;30340;52.004;5.908;2023-12-14T09:48:15;7.20;96.30
42037;DHT22;30340;52.004;5.908;2023-12-14T09:50:41;7.20;96.20
42037;DHT22;30340;52.004;5.908;2023-12-14T09:53:07;7.20;96.20
42037;DHT22;30340;52.004;5.908;2023-12-14T09:55:33;7.20;96.00
42037;DHT22;30340;52.004;5.908;2023-12-14T09:57:59;7.20;96.00
42037;DHT22;30340;52.004;5.908;2023-12-14T10:00:36;7.20;95.90
42037;DHT22;30340;52.004;5.908;2023-12-14T10:03:21;7.20;96.00
42037;DHT22;30340;52.004;5.908;2023-12-14T10:05:47;7.10;95.90
42037;DHT22;30340;52.004;5.908;2023-12-14T10:08:17;7.10;95.90
42037;DHT22;30340;52.004;5.908;2023-12-14T10:10:43;7.10;96.10
42037;DHT22;30340;52.004;5.908;2023-12-14T10:13:09;7.10;96.20
42037;DHT22;30340;52.004;5.908;2023-12-14T10:15:46;7.10;96.20
42037;DHT22;30340;52.004;5.908;2023-12-14T10:18:17;7.20;96.10
42037;DHT22;30340;52.004;5.908;2023-12-14T10:20:46;7.20;96.00
42037;DHT22;30340;52.004;5.908;2023-12-14T10:23:12;7.20;95.90
42037;DHT22;30340;52.004;5.908;2023-12-14T10:25:38;7.20;95.90
42037;DHT22;30340;52.004;5.908;2023-12-14T10:28:04;7.20;96.00
42037;DHT22;30340;52.004;5.908;2023-12-14T10:30:30;7.20;96.00
42037;DHT22;30340;52.004;5.908;2023-12-14T10:32:56;7.30;96.00
42037;DHT22;30340;52.004;5.908;2023-12-14T10:35:23;7.30;95.90
42037;DHT22;30340;52.004;5.908;2023-12-14T10:37:52;7.40;95.90
42037;DHT22;30340;52.004;5.908;2023-12-14T10:40:18;7.40;95.70
42037;DHT22;30340;52.004;5.908;2023-12-14T10:42:44;7.50;95.70
42037;DHT22;30340;52.004;5.908;2023-12-14T10:45:14;7.40;95.60
42037;DHT22;30340;52.004;5.908;2023-12-14T10:47:46;7.40;95.60
42037;DHT22;30340;52.004;5.908;2023-12-14T10:50:12;7.30;95.60
42037;DHT22;30340;52.004;5.908;2023-12-14T10:52:41;7.30;95.60
42037;DHT22;30340;52.004;5.908;2023-12-14T10:55:11;7.30;95.50
42037;DHT22;30340;52.004;5.908;2023-12-14T10:57:40;7.30;95.60
42037;DHT22;30340;52.004;5.908;2023-12-14T11:00:06;7.30;95.60
42037;DHT22;30340;52.004;5.908;2023-12-14T11:02:40;7.40;95.60
42037;DHT22;30340;52.004;5.908;2023-12-14T11:05:08;7.40;95.60
42037;DHT22;30340;52.004;5.908;2023-12-14T11:07:52;7.40;95.60
42037;DHT22;30340;52.004;5.908;2023-12-14T11:10:27;7.50;95.60
42037;DHT22;30340;52.004;5.908;2023-12-14T11:13:00;7.50;95.50
42037;DHT22;30340;52.004;5.908;2023-12-14T11:15:30;7.60;95.40
42037;DHT22;30340;52.004;5.908;2023-12-14T11:23:10;7.50;95.30
42037;DHT22;30340;52.004;5.908;2023-12-14T11:25:37;7.50;95.30
42037;DHT22;30340;52.004;5.908;2023-12-14T11:28:06;7.50;95.40
42037;DHT22;30340;52.004;5.908;2023-12-14T11:30:33;7.50;95.50
42037;DHT22;30340;52.004;5.908;2023-12-14T11:32:59;7.50;95.40
42037;DHT22;30340;52.004;5.908;2023-12-14T11:35:24;7.60;95.40
42037;DHT22;30340;52.004;5.908;2023-12-14T11:37:50;7.60;95.30
42037;DHT22;30340;52.004;5.908;2023-12-14T11:40:16;7.60;95.30
42037;DHT22;30340;52.004;5.908;2023-12-14T11:43:00;7.60;95.40
42037;DHT22;30340;52.004;5.908;2023-12-14T11:45:26;7.60;95.30
42037;DHT22;30340;52.004;5.908;2023-12-14T11:47:52;7.50;95.60
42037;DHT22;30340;52.004;5.908;2023-12-14T11:50:18;7.50;95.40
42037;DHT22;30340;52.004;5.908;2023-12-14T11:52:44;7.50;95.40
42037;DHT22;30340;52.004;5.908;2023-12-14T11:55:14;7.50;95.40
42037;DHT22;30340;52.004;5.908;2023-12-14T11:57:46;7.50;95.40
42037;DHT22;30340;52.004;5.908;2023-12-14T12:00:12;7.60;95.40
42037;DHT22;30340;52.004;5.908;2023-12-14T12:02:38;7.60;95.30
42037;DHT22;30340;52.004;5.908;2023-12-14T12:05:08;7.60;95.30
42037;DHT22;30340;52.004;5.908;2023-12-14T12:07:39;7.60;95.40
42037;DHT22;30340;52.004;5.908;2023-12-14T12:10:05;7.60;95.30
42037;DHT22;30340;52.004;5.908;2023-12-14T12:12:33;7.60;95.20
42037;DHT22;30340;52.004;5.908;2023-12-14T12:14:59;7.60;95.20
42037;DHT22;30340;52.004;5.908;2023-12-14T12:17:24;7.70;95.20
42037;DHT22;30340;52.004;5.908;2023-12-14T12:19:51;7.70;95.10
42037;DHT22;30340;52.004;5.908;2023-12-14T12:22:17;7.70;95.10
42037;DHT22;30340;52.004;5.908;2023-12-14T12:24:42;7.70;95.00
42037;DHT22;30340;52.004;5.908;2023-12-14T12:27:08;7.70;95.00
42037;DHT22;30340;52.004;5.908;2023-12-14T12:29:34;7.70;95.00
42037;DHT22;30340;52.004;5.908;2023-12-14T12:32:00;7.70;95.20
42037;DHT22;30340;52.004;5.908;2023-12-14T12:34:26;7.70;94.90
42037;DHT22;30340;52.004;5.908;2023-12-14T12:36:51;7.70;94.80
42037;DHT22;30340;52.004;5.908;2023-12-14T12:39:17;7.80;94.80
42037;DHT22;30340;52.004;5.908;2023-12-14T12:41:43;7.80;94.70
42037;DHT22;30340;52.004;5.908;2023-12-14T12:44:08;7.80;94.60
42037;DHT22;30340;52.004;5.908;2023-12-14T12:46:35;7.80;94.60
42037;DHT22;30340;52.004;5.908;2023-12-14T12:49:01;7.80;94.50
42037;DHT22;30340;52.004;5.908;2023-12-14T12:51:27;7.70;94.40
42037;DHT22;30340;52.004;5.908;2023-12-14T12:53:58;7.70;94.40
42037;DHT22;30340;52.004;5.908;2023-12-14T12:56:24;7.70;94.50
42037;DHT22;30340;52.004;5.908;2023-12-14T12:58:50;7.70;94.40
42037;DHT22;30340;52.004;5.908;2023-12-14T13:01:19;7.70;94.30
42037;DHT22;30340;52.004;5.908;2023-12-14T13:03:44;7.80;94.30
42037;DHT22;30340;52.004;5.908;2023-12-14T13:06:10;7.90;94.40
42037;DHT22;30340;52.004;5.908;2023-12-14T13:08:36;7.90;94.20
42037;DHT22;30340;52.004;5.908;2023-12-14T13:11:03;7.90;94.10
42037;DHT22;30340;52.004;5.908;2023-12-14T13:13:29;7.80;94.00
42037;DHT22;30340;52.004;5.908;2023-12-14T13:15:56;7.80;94.10
42037;DHT22;30340;52.004;5.908;2023-12-14T13:18:21;7.90;94.20
42037;DHT22;30340;52.004;5.908;2023-12-14T13:20:47;7.90;94.10
42037;DHT22;30340;52.004;5.908;2023-12-14T13:23:12;7.80;94.00
42037;DHT22;30340;52.004;5.908;2023-12-14T13:25:39;7.80;94.00
42037;DHT22;30340;52.004;5.908;2023-12-14T13:28:05;7.90;94.10
42037;DHT22;30340;52.004;5.908;2023-12-14T13:30:30;8.00;94.00
42037;DHT22;30340;52.004;5.908;2023-12-14T13:32:56;8.00;94.00
42037;DHT22;30340;52.004;5.908;2023-12-14T13:35:22;8.00;94.00
42037;DHT22;30340;52.004;5.908;2023-12-14T13:37:50;8.00;94.00
42037;DHT22;30340;52.004;5.908;2023-12-14T13:40:15;8.00;94.00
42037;DHT22;30340;52.004;5.908;2023-12-14T13:42:42;8.00;93.90
42037;DHT22;30340;52.004;5.908;2023-12-14T13:45:08;8.00;93.90
42037;DHT22;30340;52.004;5.908;2023-12-14T13:47:34;7.90;93.90
42037;DHT22;30340;52.004;5.908;2023-12-14T13:50:00;7.90;93.80
42037;DHT22;30340;52.004;5.908;2023-12-14T13:52:25;7.90;93.90
42037;DHT22;30340;52.004;5.908;2023-12-14T13:54:51;7.90;93.90
42037;DHT22;30340;52.004;5.908;2023-12-14T13:57:17;7.90;94.00
42037;DHT22;30340;52.004;5.908;2023-12-14T13:59:42;7.90;94.00
42037;DHT22;30340;52.004;5.908;2023-12-14T14:02:08;7.90;94.00
42037;DHT22;30340;52.004;5.908;2023-12-14T14:04:36;8.00;94.10
42037;DHT22;30340;52.004;5.908;2023-12-14T14:07:02;8.00;94.00
42037;DHT22;30340;52.004;5.908;2023-12-14T14:09:28;8.00;93.90
42037;DHT22;30340;52.004;5.908;2023-12-14T14:11:53;7.90;93.90
42037;DHT22;30340;52.004;5.908;2023-12-14T14:14:19;8.00;94.00
42037;DHT22;30340;52.004;5.908;2023-12-14T14:16:45;7.90;94.00
42037;DHT22;30340;52.004;5.908;2023-12-14T14:19:10;7.90;94.10
42037;DHT22;30340;52.004;5.908;2023-12-14T14:21:36;8.00;94.10
42037;DHT22;30340;52.004;5.908;2023-12-14T14:24:01;8.00;94.10
42037;DHT22;30340;52.004;5.908;2023-12-14T14:26:27;8.00;94.10
42037;DHT22;30340;52.004;5.908;2023-12-14T14:28:53;8.00;94.00
42037;DHT22;30340;52.004;5.908;2023-12-14T14:31:21;8.10;94.00
42037;DHT22;30340;52.004;5.908;2023-12-14T14:33:47;8.00;94.00
42037;DHT22;30340;52.004;5.908;2023-12-14T14:36:13;8.00;93.90
42037;DHT22;30340;52.004;5.908;2023-12-14T14:38:39;8.10;94.00
42037;DHT22;30340;52.004;5.908;2023-12-14T14:41:05;8.10;93.90
42037;DHT22;30340;52.004;5.908;2023-12-14T14:43:30;8.10;93.90
42037;DHT22;30340;52.004;5.908;2023-12-14T14:45:56;8.10;93.90
42037;DHT22;30340;52.004;5.908;2023-12-14T14:48:21;8.10;93.90
42037;DHT22;30340;52.004;5.908;2023-12-14T14:50:47;8.10;93.90
42037;DHT22;30340;52.004;5.908;2023-12-14T14:53:13;8.10;94.00
42037;DHT22;30340;52.004;5.908;2023-12-14T14:55:38;8.10;94.20
42037;DHT22;30340;52.004;5.908;2023-12-14T14:58:04;8.00;93.90
42037;DHT22;30340;52.004;5.908;2023-12-14T15:00:30;8.10;94.00
42037;DHT22;30340;52.004;5.908;2023-12-14T15:02:57;8.00;93.90
42037;DHT22;30340;52.004;5.908;2023-12-14T15:05:23;8.00;94.00
42037;DHT22;30340;52.004;5.908;2023-12-14T15:07:48;8.00;93.90
42037;DHT22;30340;52.004;5.908;2023-12-14T15:10:14;8.00;94.00
42037;DHT22;30340;52.004;5.908;2023-12-14T15:12:40;8.00;94.10
42037;DHT22;30340;52.004;5.908;2023-12-14T15:15:05;8.00;94.00
42037;DHT22;30340;52.004;5.908;2023-12-14T15:17:31;7.90;94.00
42037;DHT22;30340;52.004;5.908;2023-12-14T15:19:57;7.90;94.10
42037;DHT22;30340;52.004;5.908;2023-12-14T15:22:22;7.90;94.10
42037;DHT22;30340;52.004;5.908;2023-12-14T15:24:48;7.90;94.10
42037;DHT22;30340;52.004;5.908;2023-12-14T15:27:14;7.90;94.00
42037;DHT22;30340;52.004;5.908;2023-12-14T15:29:40;7.90;94.00
42037;DHT22;30340;52.004;5.908;2023-12-14T15:32:06;7.90;94.00
42037;DHT22;30340;52.004;5.908;2023-12-14T15:34:32;7.90;94.00
42037;DHT22;30340;52.004;5.908;2023-12-14T15:36:57;7.90;93.90
42037;DHT22;30340;52.004;5.908;2023-12-14T15:39:23;7.90;93.90
42037;DHT22;30340;52.004;5.908;2023-12-14T15:41:48;7.90;94.00
42037;DHT22;30340;52.004;5.908;2023-12-14T15:44:14;7.90;94.00